sensor_id;sensor_type;location;lat;lon;timestamp;pressure;altitude;pressure_sealevel;temperature;humidity
13456;BME280;6800;50.940;6.940;2024-02-26T00:00:17;99025.63;;;16.67;40.33
13456;BME280;6800;50.940;6.940;2024-02-26T00:04:18;99034.31;;;16.59;40.03
13456;BME280;6800;50.940;6.940;2024-02-26T00:08:20;99034.97;;;16.37;40.78
13456;BME280;6800;50.940;6.940;2024-02-26T00:12:22;99028.06;;;16.52;40.49
13456;BME280;6800;50.940;6.940;2024-02-26T00:16:24;99013.56;;;16.32;41.50
13456;BME280;6800;50.940;6.940;2024-02-26T00:20:25;99012.91;;;16.30;41.57
13456;BME280;6800;50.940;6.940;2024-02-26T00:24:27;99000.72;;;16.05;41.92
13456;BME280;6800;50.940;6.940;2024-02-26T00:28:29;99007.00;;;15.46;43.25
13456;BME280;6800;50.940;6.940;2024-02-26T00:32:30;98999.63;;;15.57;42.60
13456;BME280;6800;50.940;6.940;2024-02-26T00:36:32;98998.31;;;15.53;42.39
13456;BME280;6800;50.940;6.940;2024-02-26T00:40:33;98984.25;;;15.37;42.87
13456;BME280;6800;50.940;6.940;2024-02-26T00:44:35;98995.47;;;16.05;41.47
13456;BME280;6800;50.940;6.940;2024-02-26T00:48:37;98984.69;;;15.58;42.83
13456;BME280;6800;50.940;6.940;2024-02-26T00:52:38;98988.38;;;16.05;42.61
13456;BME280;6800;50.940;6.940;2024-02-26T00:56:40;98989.31;;;15.80;43.21
13456;BME280;6800;50.940;6.940;2024-02-26T01:00:42;98999.38;;;15.85;43.32
13456;BME280;6800;50.940;6.940;2024-02-26T01:04:43;99006.47;;;15.42;44.31
13456;BME280;6800;50.940;6.940;2024-02-26T01:08:45;98995.69;;;15.53;44.93
13456;BME280;6800;50.940;6.940;2024-02-26T01:12:47;98987.59;;;15.05;46.14
13456;BME280;6800;50.940;6.940;2024-02-26T01:16:49;98990.34;;;15.37;45.80
13456;BME280;6800;50.940;6.940;2024-02-26T01:20:50;98989.75;;;15.51;45.30
13456;BME280;6800;50.940;6.940;2024-02-26T01:24:52;98992.09;;;14.95;46.34
13456;BME280;6800;50.940;6.940;2024-02-26T01:28:54;98993.44;;;15.83;44.81
13456;BME280;6800;50.940;6.940;2024-02-26T01:32:57;98993.31;;;15.42;45.77
13456;BME280;6800;50.940;6.940;2024-02-26T01:37:02;98992.19;;;15.03;46.86
13456;BME280;6800;50.940;6.940;2024-02-26T01:41:05;98985.22;;;14.94;47.12
13456;BME280;6800;50.940;6.940;2024-02-26T01:45:13;98984.19;;;14.87;48.07
13456;BME280;6800;50.940;6.940;2024-02-26T01:49:17;98989.34;;;15.30;46.96
13456;BME280;6800;50.940;6.940;2024-02-26T01:53:19;98971.84;;;14.54;48.52
13456;BME280;6800;50.940;6.940;2024-02-26T01:57:24;98974.66;;;14.78;48.22
13456;BME280;6800;50.940;6.940;2024-02-26T02:01:27;98971.03;;;14.53;49.34
13456;BME280;6800;50.940;6.940;2024-02-26T02:05:30;98972.44;;;14.99;48.14
13456;BME280;6800;50.940;6.940;2024-02-26T02:09:32;98975.34;;;14.37;49.59
13456;BME280;6800;50.940;6.940;2024-02-26T02:13:34;98979.53;;;14.47;48.84
13456;BME280;6800;50.940;6.940;2024-02-26T02:17:35;98976.31;;;14.61;48.98
13456;BME280;6800;50.940;6.940;2024-02-26T02:21:37;98976.06;;;14.47;49.06
13456;BME280;6800;50.940;6.940;2024-02-26T02:25:39;98973.31;;;14.48;49.30
13456;BME280;6800;50.940;6.940;2024-02-26T02:29:41;98968.59;;;14.60;49.00
13456;BME280;6800;50.940;6.940;2024-02-26T02:33:43;98968.66;;;14.42;49.45
13456;BME280;6800;50.940;6.940;2024-02-26T02:37:45;98960.31;;;15.06;48.19
13456;BME280;6800;50.940;6.940;2024-02-26T02:41:46;98963.13;;;14.79;48.58
13456;BME280;6800;50.940;6.940;2024-02-26T02:45:48;98966.59;;;14.79;48.32
13456;BME280;6800;50.940;6.940;2024-02-26T02:49:51;98962.91;;;14.64;49.28
13456;BME280;6800;50.940;6.940;2024-02-26T02:53:53;98968.84;;;14.74;48.69
13456;BME280;6800;50.940;6.940;2024-02-26T02:57:54;98966.13;;;14.84;49.32
13456;BME280;6800;50.940;6.940;2024-02-26T03:01:56;98963.09;;;14.28;51.29
13456;BME280;6800;50.940;6.940;2024-02-26T03:05:57;98952.13;;;14.06;51.92
13456;BME280;6800;50.940;6.940;2024-02-26T03:09:59;98960.97;;;14.49;49.93
13456;BME280;6800;50.940;6.940;2024-02-26T03:14:03;98954.38;;;14.01;51.69
13456;BME280;6800;50.940;6.940;2024-02-26T03:18:06;98955.84;;;14.39;52.32
13456;BME280;6800;50.940;6.940;2024-02-26T03:22:08;98972.50;;;14.30;52.30
13456;BME280;6800;50.940;6.940;2024-02-26T03:26:09;98970.91;;;14.20;52.76
13456;BME280;6800;50.940;6.940;2024-02-26T03:30:15;98961.81;;;14.75;51.29
13456;BME280;6800;50.940;6.940;2024-02-26T03:34:17;98963.28;;;15.03;51.40
13456;BME280;6800;50.940;6.940;2024-02-26T03:38:22;98960.63;;;14.69;51.38
13456;BME280;6800;50.940;6.940;2024-02-26T03:42:24;98961.66;;;14.51;51.86
13456;BME280;6800;50.940;6.940;2024-02-26T03:46:25;98955.78;;;14.31;53.05
13456;BME280;6800;50.940;6.940;2024-02-26T03:50:27;98959.59;;;14.62;52.14
13456;BME280;6800;50.940;6.940;2024-02-26T03:54:28;98961.41;;;14.19;53.14
13456;BME280;6800;50.940;6.940;2024-02-26T03:58:30;98969.47;;;14.94;51.86
13456;BME280;6800;50.940;6.940;2024-02-26T04:02:32;98980.13;;;14.41;52.85
13456;BME280;6800;50.940;6.940;2024-02-26T04:06:34;98973.41;;;14.98;52.84
13456;BME280;6800;50.940;6.940;2024-02-26T04:10:36;98982.97;;;14.99;52.40
13456;BME280;6800;50.940;6.940;2024-02-26T04:14:41;98988.81;;;14.93;52.33
13456;BME280;6800;50.940;6.940;2024-02-26T04:18:42;99003.00;;;15.00;52.51
13456;BME280;6800;50.940;6.940;2024-02-26T04:22:44;99004.09;;;14.64;54.14
13456;BME280;6800;50.940;6.940;2024-02-26T04:26:48;99000.34;;;14.66;53.94
13456;BME280;6800;50.940;6.940;2024-02-26T04:30:51;99006.00;;;14.36;54.40
13456;BME280;6800;50.940;6.940;2024-02-26T04:34:54;99011.84;;;14.48;54.55
13456;BME280;6800;50.940;6.940;2024-02-26T04:38:58;99006.28;;;14.51;54.21
13456;BME280;6800;50.940;6.940;2024-02-26T04:43:00;99008.47;;;14.02;55.18
13456;BME280;6800;50.940;6.940;2024-02-26T04:47:02;99016.22;;;14.39;54.42
13456;BME280;6800;50.940;6.940;2024-02-26T04:51:04;99011.81;;;14.40;54.96
13456;BME280;6800;50.940;6.940;2024-02-26T04:55:06;99023.56;;;14.18;55.94
13456;BME280;6800;50.940;6.940;2024-02-26T04:59:07;99014.59;;;14.64;54.95
13456;BME280;6800;50.940;6.940;2024-02-26T05:03:09;99010.72;;;13.35;56.98
13456;BME280;6800;50.940;6.940;2024-02-26T05:07:14;99016.75;;;14.07;55.62
13456;BME280;6800;50.940;6.940;2024-02-26T05:11:16;99012.53;;;14.15;55.38
13456;BME280;6800;50.940;6.940;2024-02-26T05:15:20;99015.25;;;14.23;55.27
13456;BME280;6800;50.940;6.940;2024-02-26T05:19:21;99010.25;;;14.55;54.51
13456;BME280;6800;50.940;6.940;2024-02-26T05:23:23;99012.22;;;14.18;55.66
13456;BME280;6800;50.940;6.940;2024-02-26T05:27:25;99019.38;;;14.07;55.75
13456;BME280;6800;50.940;6.940;2024-02-26T05:31:28;99018.81;;;14.22;55.46
13456;BME280;6800;50.940;6.940;2024-02-26T05:35:30;99023.38;;;13.67;57.01
13456;BME280;6800;50.940;6.940;2024-02-26T05:39:31;99019.28;;;13.82;56.78
13456;BME280;6800;50.940;6.940;2024-02-26T05:43:33;99029.84;;;14.25;55.95
13456;BME280;6800;50.940;6.940;2024-02-26T05:47:36;99034.66;;;13.22;58.10
13456;BME280;6800;50.940;6.940;2024-02-26T05:51:44;99037.34;;;13.40;58.91
13456;BME280;6800;50.940;6.940;2024-02-26T05:55:45;99039.69;;;13.61;57.85
13456;BME280;6800;50.940;6.940;2024-02-26T05:59:47;99053.47;;;12.89;59.46
13456;BME280;6800;50.940;6.940;2024-02-26T06:03:49;99044.38;;;13.57;58.35
13456;BME280;6800;50.940;6.940;2024-02-26T06:07:51;99045.81;;;13.52;57.57
13456;BME280;6800;50.940;6.940;2024-02-26T06:11:52;99063.63;;;13.21;58.85
13456;BME280;6800;50.940;6.940;2024-02-26T06:15:54;99059.84;;;13.60;58.17
13456;BME280;6800;50.940;6.940;2024-02-26T06:19:56;99070.81;;;13.73;57.41
13456;BME280;6800;50.940;6.940;2024-02-26T06:23:57;99072.03;;;13.96;57.84
13456;BME280;6800;50.940;6.940;2024-02-26T06:27:59;99067.97;;;13.30;60.43
13456;BME280;6800;50.940;6.940;2024-02-26T06:32:01;99070.41;;;12.85;59.04
13456;BME280;6800;50.940;6.940;2024-02-26T06:36:02;99078.59;;;13.65;57.22
13456;BME280;6800;50.940;6.940;2024-02-26T06:40:05;99080.66;;;13.62;58.03
13456;BME280;6800;50.940;6.940;2024-02-26T06:44:07;99091.97;;;13.25;58.86
13456;BME280;6800;50.940;6.940;2024-02-26T06:48:09;99105.00;;;13.54;58.04
13456;BME280;6800;50.940;6.940;2024-02-26T06:52:10;99102.78;;;13.13;58.38
13456;BME280;6800;50.940;6.940;2024-02-26T06:56:12;99103.63;;;13.04;58.23
13456;BME280;6800;50.940;6.940;2024-02-26T07:00:14;99115.53;;;13.72;57.68
13456;BME280;6800;50.940;6.940;2024-02-26T07:04:17;99116.31;;;13.08;59.09
13456;BME280;6800;50.940;6.940;2024-02-26T07:08:19;99125.94;;;13.17;59.66
13456;BME280;6800;50.940;6.940;2024-02-26T07:12:21;99119.50;;;13.49;58.89
13456;BME280;6800;50.940;6.940;2024-02-26T07:16:23;99122.03;;;13.95;56.71
13456;BME280;6800;50.940;6.940;2024-02-26T07:20:24;99121.13;;;14.49;55.70
13456;BME280;6800;50.940;6.940;2024-02-26T07:24:25;99128.28;;;14.56;55.23
13456;BME280;6800;50.940;6.940;2024-02-26T07:28:27;99132.56;;;14.40;56.07
13456;BME280;6800;50.940;6.940;2024-02-26T07:32:28;99139.94;;;14.27;55.94
13456;BME280;6800;50.940;6.940;2024-02-26T07:36:30;99143.31;;;13.55;58.55
13456;BME280;6800;50.940;6.940;2024-02-26T07:40:32;99136.75;;;14.33;56.21
13456;BME280;6800;50.940;6.940;2024-02-26T07:44:33;99139.06;;;14.08;57.56
13456;BME280;6800;50.940;6.940;2024-02-26T07:48:35;99148.16;;;14.41;56.37
13456;BME280;6800;50.940;6.940;2024-02-26T07:52:37;99152.31;;;13.53;57.62
13456;BME280;6800;50.940;6.940;2024-02-26T07:56:39;99152.13;;;13.17;59.35
13456;BME280;6800;50.940;6.940;2024-02-26T08:00:40;99157.06;;;14.31;57.45
13456;BME280;6800;50.940;6.940;2024-02-26T08:04:42;99158.34;;;14.17;56.95
13456;BME280;6800;50.940;6.940;2024-02-26T08:08:43;99163.19;;;13.94;57.93
13456;BME280;6800;50.940;6.940;2024-02-26T08:12:45;99166.47;;;13.23;58.71
13456;BME280;6800;50.940;6.940;2024-02-26T08:16:46;99174.28;;;13.79;57.50
13456;BME280;6800;50.940;6.940;2024-02-26T08:20:48;99172.03;;;13.10;58.76
13456;BME280;6800;50.940;6.940;2024-02-26T08:24:50;99181.31;;;13.32;59.52
13456;BME280;6800;50.940;6.940;2024-02-26T08:28:51;99187.13;;;14.09;56.34
13456;BME280;6800;50.940;6.940;2024-02-26T08:32:53;99183.53;;;13.46;59.64
13456;BME280;6800;50.940;6.940;2024-02-26T08:36:55;99213.38;;;13.72;58.99
13456;BME280;6800;50.940;6.940;2024-02-26T08:40:57;99206.72;;;14.42;56.61
13456;BME280;6800;50.940;6.940;2024-02-26T08:44:58;99201.56;;;13.49;58.92
13456;BME280;6800;50.940;6.940;2024-02-26T08:49:03;99209.91;;;14.36;56.46
13456;BME280;6800;50.940;6.940;2024-02-26T08:53:05;99217.31;;;14.23;56.29
13456;BME280;6800;50.940;6.940;2024-02-26T08:57:08;99226.72;;;14.16;57.06
13456;BME280;6800;50.940;6.940;2024-02-26T09:01:09;99226.78;;;14.60;56.08
13456;BME280;6800;50.940;6.940;2024-02-26T09:05:11;99235.84;;;14.66;56.03
13456;BME280;6800;50.940;6.940;2024-02-26T09:09:12;99235.69;;;14.50;56.36
13456;BME280;6800;50.940;6.940;2024-02-26T09:13:14;99245.56;;;14.38;55.63
13456;BME280;6800;50.940;6.940;2024-02-26T09:17:16;99238.25;;;14.59;55.82
13456;BME280;6800;50.940;6.940;2024-02-26T09:21:17;99262.06;;;14.31;56.61
13456;BME280;6800;50.940;6.940;2024-02-26T09:25:24;99262.91;;;14.49;55.93
13456;BME280;6800;50.940;6.940;2024-02-26T09:29:26;99266.19;;;14.24;56.07
13456;BME280;6800;50.940;6.940;2024-02-26T09:33:29;99274.41;;;14.48;56.29
13456;BME280;6800;50.940;6.940;2024-02-26T09:37:31;99277.22;;;14.37;56.42
13456;BME280;6800;50.940;6.940;2024-02-26T09:41:32;99274.41;;;14.65;55.99
13456;BME280;6800;50.940;6.940;2024-02-26T09:45:34;99282.31;;;14.38;56.20
13456;BME280;6800;50.940;6.940;2024-02-26T09:49:36;99283.06;;;13.75;58.25
13456;BME280;6800;50.940;6.940;2024-02-26T09:53:39;99288.56;;;13.91;57.01
13456;BME280;6800;50.940;6.940;2024-02-26T09:57:48;99297.50;;;13.98;57.47
13456;BME280;6800;50.940;6.940;2024-02-26T10:01:53;99297.00;;;14.22;56.74
13456;BME280;6800;50.940;6.940;2024-02-26T10:05:55;99298.13;;;13.63;58.00
13456;BME280;6800;50.940;6.940;2024-02-26T10:09:59;99313.69;;;14.40;56.71
13456;BME280;6800;50.940;6.940;2024-02-26T10:14:01;99319.31;;;14.72;55.44
13456;BME280;6800;50.940;6.940;2024-02-26T10:18:07;99317.00;;;14.32;56.25
13456;BME280;6800;50.940;6.940;2024-02-26T10:22:09;99323.34;;;13.83;58.11
13456;BME280;6800;50.940;6.940;2024-02-26T10:26:11;99316.91;;;13.49;57.98
13456;BME280;6800;50.940;6.940;2024-02-26T10:30:18;99330.41;;;14.39;56.61
13456;BME280;6800;50.940;6.940;2024-02-26T10:34:20;99322.66;;;14.37;56.96
13456;BME280;6800;50.940;6.940;2024-02-26T10:38:22;99337.69;;;14.45;56.77
13456;BME280;6800;50.940;6.940;2024-02-26T10:42:26;99339.81;;;14.32;57.68
13456;BME280;6800;50.940;6.940;2024-02-26T10:46:27;99341.16;;;14.72;56.42
13456;BME280;6800;50.940;6.940;2024-02-26T10:50:31;99340.13;;;14.29;56.92
13456;BME280;6800;50.940;6.940;2024-02-26T10:54:39;99349.31;;;15.14;55.57
13456;BME280;6800;50.940;6.940;2024-02-26T10:58:46;99357.47;;;14.39;56.97
13456;BME280;6800;50.940;6.940;2024-02-26T11:02:48;99352.50;;;14.36;56.14
13456;BME280;6800;50.940;6.940;2024-02-26T11:06:50;99357.78;;;14.17;57.25
13456;BME280;6800;50.940;6.940;2024-02-26T11:10:56;99367.59;;;14.15;57.62
13456;BME280;6800;50.940;6.940;2024-02-26T11:14:58;99365.97;;;14.14;57.24
13456;BME280;6800;50.940;6.940;2024-02-26T11:19:02;99379.50;;;15.10;56.25
13456;BME280;6800;50.940;6.940;2024-02-26T11:23:07;99378.06;;;14.71;56.00
13456;BME280;6800;50.940;6.940;2024-02-26T11:27:10;99377.22;;;14.98;55.82
13456;BME280;6800;50.940;6.940;2024-02-26T11:31:13;99379.25;;;15.31;54.29
13456;BME280;6800;50.940;6.940;2024-02-26T11:35:15;99387.38;;;15.37;53.84
13456;BME280;6800;50.940;6.940;2024-02-26T11:39:19;99401.03;;;14.69;55.80
13456;BME280;6800;50.940;6.940;2024-02-26T11:43:50;99407.22;;;14.77;55.86
13456;BME280;6800;50.940;6.940;2024-02-26T11:47:56;99397.88;;;15.20;55.43
13456;BME280;6800;50.940;6.940;2024-02-26T11:51:58;99399.34;;;14.77;55.58
13456;BME280;6800;50.940;6.940;2024-02-26T12:00:18;99397.56;;;14.22;57.67
13456;BME280;6800;50.940;6.940;2024-02-26T12:04:26;99404.56;;;15.32;54.85
13456;BME280;6800;50.940;6.940;2024-02-26T12:08:34;99402.16;;;14.94;56.90
13456;BME280;6800;50.940;6.940;2024-02-26T12:12:36;99407.47;;;15.11;56.19
13456;BME280;6800;50.940;6.940;2024-02-26T12:16:39;99417.38;;;15.17;56.49
13456;BME280;6800;50.940;6.940;2024-02-26T12:20:41;99401.97;;;14.41;58.05
13456;BME280;6800;50.940;6.940;2024-02-26T12:24:43;99421.00;;;15.16;56.21
13456;BME280;6800;50.940;6.940;2024-02-26T12:28:46;99423.91;;;14.86;55.89
13456;BME280;6800;50.940;6.940;2024-02-26T12:32:49;99442.91;;;14.70;57.75
13456;BME280;6800;50.940;6.940;2024-02-26T12:36:51;99448.44;;;15.04;56.27
13456;BME280;6800;50.940;6.940;2024-02-26T12:40:52;99457.25;;;14.76;56.96
13456;BME280;6800;50.940;6.940;2024-02-26T12:44:54;99459.75;;;15.59;55.44
13456;BME280;6800;50.940;6.940;2024-02-26T12:48:56;99464.13;;;14.50;57.08
13456;BME280;6800;50.940;6.940;2024-02-26T12:53:01;99473.09;;;14.28;59.33
13456;BME280;6800;50.940;6.940;2024-02-26T12:57:04;99476.16;;;15.71;54.67
13456;BME280;6800;50.940;6.940;2024-02-26T13:01:14;99477.66;;;14.92;57.06
13456;BME280;6800;50.940;6.940;2024-02-26T13:05:17;99482.22;;;14.99;57.05
13456;BME280;6800;50.940;6.940;2024-02-26T13:09:20;99483.34;;;15.24;56.10
13456;BME280;6800;50.940;6.940;2024-02-26T13:13:23;99497.59;;;14.94;57.19
13456;BME280;6800;50.940;6.940;2024-02-26T13:17:25;99495.16;;;15.10;57.49
13456;BME280;6800;50.940;6.940;2024-02-26T13:21:29;99507.97;;;14.86;57.96
13456;BME280;6800;50.940;6.940;2024-02-26T13:25:31;99509.03;;;14.47;57.88
13456;BME280;6800;50.940;6.940;2024-02-26T13:29:33;99511.91;;;14.53;58.85
13456;BME280;6800;50.940;6.940;2024-02-26T13:33:34;99512.06;;;14.23;58.26
13456;BME280;6800;50.940;6.940;2024-02-26T13:37:38;99522.50;;;15.27;56.80
13456;BME280;6800;50.940;6.940;2024-02-26T13:41:40;99523.56;;;15.43;56.06
13456;BME280;6800;50.940;6.940;2024-02-26T13:45:44;99523.94;;;15.12;56.05
13456;BME280;6800;50.940;6.940;2024-02-26T13:49:46;99530.88;;;15.03;56.30
13456;BME280;6800;50.940;6.940;2024-02-26T13:53:48;99527.84;;;14.98;55.66
13456;BME280;6800;50.940;6.940;2024-02-26T13:57:50;99530.50;;;15.25;55.57
13456;BME280;6800;50.940;6.940;2024-02-26T14:01:53;99546.63;;;14.57;56.59
13456;BME280;6800;50.940;6.940;2024-02-26T14:05:56;99536.53;;;14.52;57.20
13456;BME280;6800;50.940;6.940;2024-02-26T14:10:00;99548.03;;;15.07;55.37
13456;BME280;6800;50.940;6.940;2024-02-26T14:14:01;99563.03;;;14.78;55.78
13456;BME280;6800;50.940;6.940;2024-02-26T14:18:03;99551.69;;;14.68;56.78
13456;BME280;6800;50.940;6.940;2024-02-26T14:22:06;99556.22;;;15.31;55.36
13456;BME280;6800;50.940;6.940;2024-02-26T14:26:08;99559.44;;;14.79;56.71
13456;BME280;6800;50.940;6.940;2024-02-26T14:30:09;99561.28;;;15.79;54.12
13456;BME280;6800;50.940;6.940;2024-02-26T14:34:11;99573.25;;;14.81;56.99
13456;BME280;6800;50.940;6.940;2024-02-26T14:38:13;99575.56;;;15.49;55.04
13456;BME280;6800;50.940;6.940;2024-02-26T14:42:14;99578.81;;;16.06;53.37
13456;BME280;6800;50.940;6.940;2024-02-26T14:46:19;99586.25;;;15.48;54.64
13456;BME280;6800;50.940;6.940;2024-02-26T14:50:20;99596.00;;;15.83;54.28
13456;BME280;6800;50.940;6.940;2024-02-26T14:54:21;99590.13;;;15.34;54.77
13456;BME280;6800;50.940;6.940;2024-02-26T14:58:23;99606.06;;;15.33;54.91
13456;BME280;6800;50.940;6.940;2024-02-26T15:02:24;99605.53;;;15.20;55.04
13456;BME280;6800;50.940;6.940;2024-02-26T15:06:26;99619.38;;;15.12;54.64
13456;BME280;6800;50.940;6.940;2024-02-26T15:10:28;99619.97;;;16.24;52.50
13456;BME280;6800;50.940;6.940;2024-02-26T15:14:30;99615.34;;;16.36;51.69
13456;BME280;6800;50.940;6.940;2024-02-26T15:18:31;99624.47;;;15.70;53.37
13456;BME280;6800;50.940;6.940;2024-02-26T15:22:33;99626.81;;;16.00;53.07
13456;BME280;6800;50.940;6.940;2024-02-26T15:26:35;99630.13;;;15.28;54.11
13456;BME280;6800;50.940;6.940;2024-02-26T15:30:36;99639.31;;;15.05;54.98
13456;BME280;6800;50.940;6.940;2024-02-26T15:34:38;99640.72;;;15.55;53.25
13456;BME280;6800;50.940;6.940;2024-02-26T15:38:40;99652.50;;;16.33;51.23
13456;BME280;6800;50.940;6.940;2024-02-26T15:42:41;99653.63;;;16.13;51.82
13456;BME280;6800;50.940;6.940;2024-02-26T15:46:43;99667.56;;;15.96;52.67
13456;BME280;6800;50.940;6.940;2024-02-26T15:50:44;99670.81;;;15.43;53.93
13456;BME280;6800;50.940;6.940;2024-02-26T15:54:46;99669.06;;;15.98;53.36
13456;BME280;6800;50.940;6.940;2024-02-26T15:58:47;99685.50;;;15.46;55.03
13456;BME280;6800;50.940;6.940;2024-02-26T16:02:49;99681.19;;;16.36;52.61
13456;BME280;6800;50.940;6.940;2024-02-26T16:06:55;99690.00;;;16.45;52.62
13456;BME280;6800;50.940;6.940;2024-02-26T16:10:58;99687.53;;;16.43;52.81
13456;BME280;6800;50.940;6.940;2024-02-26T16:14:59;99692.91;;;16.24;53.85
13456;BME280;6800;50.940;6.940;2024-02-26T16:19:11;99716.19;;;16.56;52.96
13456;BME280;6800;50.940;6.940;2024-02-26T16:23:13;99716.31;;;16.72;52.77
13456;BME280;6800;50.940;6.940;2024-02-26T16:27:15;99715.25;;;16.65;52.73
13456;BME280;6800;50.940;6.940;2024-02-26T16:31:17;99722.84;;;16.50;53.07
13456;BME280;6800;50.940;6.940;2024-02-26T16:35:19;99732.53;;;16.77;52.30
13456;BME280;6800;50.940;6.940;2024-02-26T16:39:21;99732.69;;;16.48;53.27
13456;BME280;6800;50.940;6.940;2024-02-26T16:43:22;99743.28;;;15.65;55.39
13456;BME280;6800;50.940;6.940;2024-02-26T16:47:24;99753.94;;;15.63;55.07
13456;BME280;6800;50.940;6.940;2024-02-26T16:51:26;99756.72;;;16.08;54.63
13456;BME280;6800;50.940;6.940;2024-02-26T16:55:28;99774.28;;;15.81;55.55
13456;BME280;6800;50.940;6.940;2024-02-26T16:59:30;99776.41;;;15.39;55.26
13456;BME280;6800;50.940;6.940;2024-02-26T17:03:32;99782.22;;;16.72;51.62
13456;BME280;6800;50.940;6.940;2024-02-26T17:07:35;99782.06;;;16.73;51.28
13456;BME280;6800;50.940;6.940;2024-02-26T17:11:36;99790.44;;;16.32;52.50
13456;BME280;6800;50.940;6.940;2024-02-26T17:15:40;99802.63;;;16.33;51.93
13456;BME280;6800;50.940;6.940;2024-02-26T17:19:42;99815.16;;;15.37;53.37
13456;BME280;6800;50.940;6.940;2024-02-26T17:23:44;99815.75;;;16.52;51.34
13456;BME280;6800;50.940;6.940;2024-02-26T17:27:45;99827.72;;;16.37;52.27
13456;BME280;6800;50.940;6.940;2024-02-26T17:31:47;99832.53;;;16.41;51.09
13456;BME280;6800;50.940;6.940;2024-02-26T17:35:49;99844.03;;;14.99;54.05
13456;BME280;6800;50.940;6.940;2024-02-26T17:39:50;99845.44;;;16.35;50.19
13456;BME280;6800;50.940;6.940;2024-02-26T17:43:52;99851.66;;;15.11;53.48
13456;BME280;6800;50.940;6.940;2024-02-26T17:47:54;99857.69;;;15.51;52.27
13456;BME280;6800;50.940;6.940;2024-02-26T17:51:55;99862.78;;;14.75;53.69
13456;BME280;6800;50.940;6.940;2024-02-26T17:55:58;99886.38;;;15.05;53.86
13456;BME280;6800;50.940;6.940;2024-02-26T18:00:03;99886.50;;;15.04;52.54
13456;BME280;6800;50.940;6.940;2024-02-26T18:04:06;99894.09;;;15.56;51.55
13456;BME280;6800;50.940;6.940;2024-02-26T18:08:08;99896.84;;;15.45;51.56
13456;BME280;6800;50.940;6.940;2024-02-26T18:12:10;99911.22;;;14.92;51.98
13456;BME280;6800;50.940;6.940;2024-02-26T18:16:11;99915.41;;;14.64;52.34
13456;BME280;6800;50.940;6.940;2024-02-26T18:20:13;99922.78;;;13.87;54.17
13456;BME280;6800;50.940;6.940;2024-02-26T18:24:14;99937.50;;;14.92;51.84
13456;BME280;6800;50.940;6.940;2024-02-26T18:28:16;99948.28;;;13.96;53.77
13456;BME280;6800;50.940;6.940;2024-02-26T18:32:19;99951.25;;;15.14;51.12
13456;BME280;6800;50.940;6.940;2024-02-26T18:36:21;99963.66;;;14.93;51.57
13456;BME280;6800;50.940;6.940;2024-02-26T18:40:25;99962.47;;;14.76;52.18
13456;BME280;6800;50.940;6.940;2024-02-26T18:44:26;99960.41;;;15.79;48.97
13456;BME280;6800;50.940;6.940;2024-02-26T18:48:28;99976.22;;;16.17;48.53
13456;BME280;6800;50.940;6.940;2024-02-26T18:52:32;99979.91;;;15.08;51.04
13456;BME280;6800;50.940;6.940;2024-02-26T18:56:34;99993.50;;;14.62;52.01
13456;BME280;6800;50.940;6.940;2024-02-26T19:00:36;99999.47;;;14.43;52.57
13456;BME280;6800;50.940;6.940;2024-02-26T19:04:38;100013.09;;;15.09;50.70
13456;BME280;6800;50.940;6.940;2024-02-26T19:08:39;100021.28;;;14.85;51.90
13456;BME280;6800;50.940;6.940;2024-02-26T19:12:42;100028.81;;;15.29;50.70
13456;BME280;6800;50.940;6.940;2024-02-26T19:16:45;100031.44;;;15.29;49.91
13456;BME280;6800;50.940;6.940;2024-02-26T19:20:47;100034.53;;;15.04;50.60
13456;BME280;6800;50.940;6.940;2024-02-26T19:24:49;100049.28;;;14.34;52.21
13456;BME280;6800;50.940;6.940;2024-02-26T19:28:51;100049.13;;;15.18;50.19
13456;BME280;6800;50.940;6.940;2024-02-26T19:32:53;100063.53;;;14.52;52.15
13456;BME280;6800;50.940;6.940;2024-02-26T19:36:56;100068.72;;;14.83;51.25
13456;BME280;6800;50.940;6.940;2024-02-26T19:40:58;100074.38;;;13.84;53.86
13456;BME280;6800;50.940;6.940;2024-02-26T19:44:59;100084.44;;;15.45;49.79
13456;BME280;6800;50.940;6.940;2024-02-26T19:49:02;100091.38;;;15.35;49.81
13456;BME280;6800;50.940;6.940;2024-02-26T19:53:04;100105.84;;;13.95;53.25
13456;BME280;6800;50.940;6.940;2024-02-26T19:57:06;100104.16;;;14.89;50.55
13456;BME280;6800;50.940;6.940;2024-02-26T20:01:09;100113.31;;;15.15;49.58
13456;BME280;6800;50.940;6.940;2024-02-26T20:05:12;100122.56;;;15.10;50.43
13456;BME280;6800;50.940;6.940;2024-02-26T20:09:13;100129.41;;;15.01;50.18
13456;BME280;6800;50.940;6.940;2024-02-26T20:13:16;100132.66;;;15.14;50.20
13456;BME280;6800;50.940;6.940;2024-02-26T20:17:17;100120.94;;;14.14;52.99
13456;BME280;6800;50.940;6.940;2024-02-26T20:21:20;100133.03;;;13.83;52.76
13456;BME280;6800;50.940;6.940;2024-02-26T20:25:22;100138.88;;;14.72;51.10
13456;BME280;6800;50.940;6.940;2024-02-26T20:29:23;100143.09;;;15.25;49.12
13456;BME280;6800;50.940;6.940;2024-02-26T20:33:25;100151.94;;;14.62;51.64
13456;BME280;6800;50.940;6.940;2024-02-26T20:37:27;100162.72;;;15.42;49.75
13456;BME280;6800;50.940;6.940;2024-02-26T20:41:29;100164.28;;;13.75;52.56
13456;BME280;6800;50.940;6.940;2024-02-26T20:45:33;100162.91;;;14.67;51.30
13456;BME280;6800;50.940;6.940;2024-02-26T20:49:35;100166.28;;;14.58;51.99
13456;BME280;6800;50.940;6.940;2024-02-26T20:53:38;100168.66;;;14.61;51.15
13456;BME280;6800;50.940;6.940;2024-02-26T20:57:46;100181.41;;;15.39;49.13
13456;BME280;6800;50.940;6.940;2024-02-26T21:01:48;100187.09;;;14.28;51.06
13456;BME280;6800;50.940;6.940;2024-02-26T21:05:52;100199.31;;;13.96;51.49
13456;BME280;6800;50.940;6.940;2024-02-26T21:09:55;100201.44;;;14.78;50.40
13456;BME280;6800;50.940;6.940;2024-02-26T21:13:57;100207.19;;;14.72;50.48
13456;BME280;6800;50.940;6.940;2024-02-26T21:17:59;100215.19;;;14.05;51.26
13456;BME280;6800;50.940;6.940;2024-02-26T21:22:01;100206.88;;;14.97;48.73
13456;BME280;6800;50.940;6.940;2024-02-26T21:26:03;100217.25;;;15.19;48.58
13456;BME280;6800;50.940;6.940;2024-02-26T21:30:06;100233.06;;;15.08;48.70
13456;BME280;6800;50.940;6.940;2024-02-26T21:34:08;100241.09;;;14.75;49.79
13456;BME280;6800;50.940;6.940;2024-02-26T21:38:10;100255.38;;;14.39;50.34
13456;BME280;6800;50.940;6.940;2024-02-26T21:42:15;100263.00;;;15.99;46.74